Time;durP1;ratioP1;P1;durP2;ratioP2;P2;SDS_P1;SDS_P2;PMS_P1;PMS_P2;Temp;Humidity;BMP_temperature;BMP_pressure;BME280_temperature;BME280_humidity;BME280_pressure;Samples;Min_cycle;Max_cycle;Signal;HPM_P1;HPM_P2
2023/07/29 00:02:37;;;;;;;8.73;2.50;;;;;;;;;;4877955;29;20146;-67
2023/07/29 00:06:17;;;;;;;7.78;2.15;;;;;;;;;;4879048;29;20052;-67
2023/07/29 00:09:58;;;;;;;7.55;2.10;;;;;;;;;;4876596;29;20048;-67
2023/07/29 00:13:38;;;;;;;7.55;2.08;;;;;;;;;;4875606;29;20060;-70
2023/07/29 00:16:39;;;;;;;11.57;2.67;;;;;;;;;;4877681;29;20049;-66
2023/07/29 00:19:05;;;;;;;8.57;2.13;;;;;;;;;;4877538;29;20048;-67
2023/07/29 00:21:30;;;;;;;9.07;2.10;;;;;;;;;;4877453;29;20064;-67
2023/07/29 00:24:01;;;;;;;7.82;2.25;;;;;;;;;;4878650;29;20048;-67
2023/07/29 00:26:28;;;;;;;6.40;2.20;;;;;;;;;;4877938;29;20136;-69
2023/07/29 00:28:56;;;;;;;9.73;2.38;;;;;;;;;;4859971;29;20052;-66
2023/07/29 00:31:22;;;;;;;8.60;2.03;;;;;;;;;;4877215;29;20078;-67
2023/07/29 00:33:49;;;;;;;7.32;2.00;;;;;;;;;;4876700;29;20120;-67
2023/07/29 00:36:15;;;;;;;7.22;1.83;;;;;;;;;;4878338;29;20724;-68
2023/07/29 00:38:41;;;;;;;11.88;2.35;;;;;;;;;;4880221;29;20092;-66
2023/07/29 00:41:08;;;;;;;7.75;2.15;;;;;;;;;;4878451;29;20157;-68
2023/07/29 00:43:35;;;;;;;7.80;2.08;;;;;;;;;;4876593;29;20058;-67
2023/07/29 00:46:01;;;;;;;7.68;1.92;;;;;;;;;;4878028;29;20048;-66
2023/07/29 00:48:27;;;;;;;8.75;2.00;;;;;;;;;;4879879;29;20059;-70
2023/07/29 00:50:54;;;;;;;10.80;2.40;;;;;;;;;;4879111;29;20099;-70
2023/07/29 00:53:20;;;;;;;6.78;1.80;;;;;;;;;;4877665;29;20726;-69
2023/07/29 00:55:46;;;;;;;10.52;2.38;;;;;;;;;;4879490;29;20098;-69
2023/07/29 00:58:13;;;;;;;9.85;2.40;;;;;;;;;;4879237;29;20515;-68
2023/07/29 01:00:39;;;;;;;10.45;2.92;;;;;;;;;;4877998;29;20062;-65
2023/07/29 01:03:06;;;;;;;6.47;2.17;;;;;;;;;;4876991;29;20052;-66
2023/07/29 01:05:41;;;;;;;10.38;3.22;;;;;;;;;;4875928;29;20136;-66
2023/07/29 01:08:34;;;;;;;9.55;3.20;;;;;;;;;;4878564;29;20072;-66
2023/07/29 01:11:32;;;;;;;14.05;3.60;;;;;;;;;;4865664;29;20151;-68
2023/07/29 01:15:21;;;;;;;6.75;2.53;;;;;;;;;;4881550;29;20457;-67
2023/07/29 01:19:08;;;;;;;10.35;3.03;;;;;;;;;;4892339;29;20049;-67
2023/07/29 01:22:48;;;;;;;7.28;2.65;;;;;;;;;;4887652;29;20095;-68
2023/07/29 01:26:29;;;;;;;11.32;3.25;;;;;;;;;;4892741;29;20552;-67
2023/07/29 01:30:09;;;;;;;12.63;3.40;;;;;;;;;;4888454;29;20051;-66
2023/07/29 01:33:49;;;;;;;10.95;3.20;;;;;;;;;;4889837;29;20769;-66
2023/07/29 01:37:17;;;;;;;13.73;3.42;;;;;;;;;;4894443;29;20144;-69
2023/07/29 01:40:58;;;;;;;11.73;3.40;;;;;;;;;;4892267;29;20135;-68
2023/07/29 01:44:38;;;;;;;12.07;2.75;;;;;;;;;;4882318;29;20052;-69
2023/07/29 01:47:41;;;;;;;9.35;3.50;;;;;;;;;;4887446;29;20485;-67
2023/07/29 01:50:47;;;;;;;9.63;3.47;;;;;;;;;;4891897;29;20107;-67
2023/07/29 01:54:27;;;;;;;12.80;3.45;;;;;;;;;;4890635;29;20416;-68
2023/07/29 01:58:08;;;;;;;10.23;3.22;;;;;;;;;;4895518;29;20119;-67
2023/07/29 02:01:49;;;;;;;12.18;3.17;;;;;;;;;;4888193;29;20079;-67
2023/07/29 02:05:29;;;;;;;10.98;3.20;;;;;;;;;;4894281;29;20041;-68
2023/07/29 02:09:10;;;;;;;11.95;2.70;;;;;;;;;;4890823;29;20052;-67
2023/07/29 02:12:50;;;;;;;8.73;2.63;;;;;;;;;;4891976;29;20108;-67
2023/07/29 02:16:32;;;;;;;7.05;2.45;;;;;;;;;;4889926;29;20063;-68
2023/07/29 02:20:10;;;;;;;9.13;2.60;;;;;;;;;;4895702;29;20135;-66
2023/07/29 02:23:51;;;;;;;8.13;2.47;;;;;;;;;;4887755;29;20067;-66
2023/07/29 02:27:31;;;;;;;10.75;2.50;;;;;;;;;;4895600;29;20052;-67
2023/07/29 02:31:11;;;;;;;11.43;2.40;;;;;;;;;;4895740;29;20393;-67
2023/07/29 02:34:52;;;;;;;10.38;2.38;;;;;;;;;;4893675;29;20053;-67
2023/07/29 02:38:32;;;;;;;8.98;2.53;;;;;;;;;;4893702;29;20193;-67
2023/07/29 02:42:12;;;;;;;10.02;2.55;;;;;;;;;;4896331;29;20087;-67
2023/07/29 02:45:53;;;;;;;11.73;2.67;;;;;;;;;;4891487;29;20041;-69
2023/07/29 02:49:33;;;;;;;6.30;2.47;;;;;;;;;;4888567;29;20516;-67
2023/07/29 02:53:14;;;;;;;9.15;2.50;;;;;;;;;;4893081;29;20052;-67
2023/07/29 02:56:55;;;;;;;6.85;2.35;;;;;;;;;;4891949;29;20049;-66
2023/07/29 03:00:35;;;;;;;12.75;2.50;;;;;;;;;;4894870;29;20515;-66
2023/07/29 03:04:16;;;;;;;8.38;2.50;;;;;;;;;;4895191;29;20061;-68
2023/07/29 03:07:56;;;;;;;7.43;2.90;;;;;;;;;;4892858;29;20049;-68
2023/07/29 03:11:37;;;;;;;12.52;2.92;;;;;;;;;;4891576;29;20493;-66
2023/07/29 03:15:17;;;;;;;6.95;2.33;;;;;;;;;;4894930;29;20153;-67
2023/07/29 03:19:00;;;;;;;7.88;2.80;;;;;;;;;;4895087;29;20056;-67
2023/07/29 03:22:38;;;;;;;12.02;3.42;;;;;;;;;;4884590;29;20413;-67
2023/07/29 03:26:19;;;;;;;8.68;3.40;;;;;;;;;;4893018;29;20091;-69
2023/07/29 03:29:59;;;;;;;9.55;3.40;;;;;;;;;;4882372;29;20076;-67
2023/07/29 03:33:39;;;;;;;11.98;3.58;;;;;;;;;;4889774;29;20135;-66
2023/07/29 03:37:21;;;;;;;11.38;3.90;;;;;;;;;;4889246;29;20135;-64
2023/07/29 03:41:02;;;;;;;10.63;3.47;;;;;;;;;;4893511;29;20044;-66
2023/07/29 03:44:41;;;;;;;13.15;3.83;;;;;;;;;;4883469;29;20107;-68
2023/07/29 03:48:21;;;;;;;10.77;4.25;;;;;;;;;;4890081;29;20501;-66
2023/07/29 03:52:01;;;;;;;10.63;4.43;;;;;;;;;;4893141;29;20048;-67
2023/07/29 03:55:41;;;;;;;9.00;3.80;;;;;;;;;;4891048;29;20055;-66
2023/07/29 03:59:22;;;;;;;13.45;4.10;;;;;;;;;;4883498;29;20501;-67
2023/07/29 04:03:02;;;;;;;11.35;4.03;;;;;;;;;;4893765;29;20765;-66
2023/07/29 04:06:44;;;;;;;11.90;3.80;;;;;;;;;;4893522;29;20528;-67
2023/07/29 04:10:25;;;;;;;13.48;4.50;;;;;;;;;;4895341;29;20049;-66
2023/07/29 04:14:07;;;;;;;8.80;3.83;;;;;;;;;;4890899;29;20504;-66
2023/07/29 04:17:47;;;;;;;9.38;3.75;;;;;;;;;;4895596;29;20049;-67
2023/07/29 04:21:27;;;;;;;7.15;3.80;;;;;;;;;;4892440;29;20045;-65
2023/07/29 04:24:28;;;;;;;13.77;4.10;;;;;;;;;;4887487;29;20393;-69
2023/07/29 04:27:34;;;;;;;11.57;3.92;;;;;;;;;;4894653;29;20052;-68
2023/07/29 04:31:14;;;;;;;10.75;4.15;;;;;;;;;;4883196;29;20040;-68
2023/07/29 04:34:54;;;;;;;14.13;4.03;;;;;;;;;;4891797;29;20396;-69
2023/07/29 04:38:35;;;;;;;12.40;4.10;;;;;;;;;;4891128;29;20119;-67
2023/07/29 04:42:15;;;;;;;9.23;3.58;;;;;;;;;;4887938;29;20402;-70
2023/07/29 04:45:55;;;;;;;10.85;3.97;;;;;;;;;;4890293;29;20055;-69
2023/07/29 04:49:36;;;;;;;13.80;3.83;;;;;;;;;;4888524;29;20080;-70
2023/07/29 04:53:16;;;;;;;11.73;4.00;;;;;;;;;;4891734;29;20056;-67
2023/07/29 04:56:56;;;;;;;10.27;4.13;;;;;;;;;;4890853;29;20052;-68
2023/07/29 05:00:37;;;;;;;11.85;3.75;;;;;;;;;;4892264;29;20064;-71
2023/07/29 05:04:17;;;;;;;6.07;3.40;;;;;;;;;;4880335;29;20052;-69
2023/07/29 05:07:58;;;;;;;12.10;4.07;;;;;;;;;;4891470;29;20468;-69
2023/07/29 05:11:38;;;;;;;11.43;4.45;;;;;;;;;;4892453;29;20057;-68
2023/07/29 05:15:18;;;;;;;8.93;3.22;;;;;;;;;;4891061;29;20152;-68
2023/07/29 05:18:59;;;;;;;10.40;3.80;;;;;;;;;;4885455;29;20095;-70
2023/07/29 05:22:39;;;;;;;10.85;4.20;;;;;;;;;;4886931;29;20057;-69
2023/07/29 05:26:20;;;;;;;12.93;4.10;;;;;;;;;;4891784;29;20045;-70
2023/07/29 05:30:00;;;;;;;12.25;4.32;;;;;;;;;;4894315;29;20052;-68
2023/07/29 05:33:40;;;;;;;11.27;4.25;;;;;;;;;;4889964;29;20053;-71
2023/07/29 05:37:22;;;;;;;12.18;4.22;;;;;;;;;;4892262;29;20052;-70
2023/07/29 05:41:02;;;;;;;14.98;4.88;;;;;;;;;;4894581;29;20041;-70
2023/07/29 05:44:44;;;;;;;13.90;4.97;;;;;;;;;;4898828;29;20048;-71
2023/07/29 05:48:24;;;;;;;13.18;4.40;;;;;;;;;;4890202;29;20052;-70
2023/07/29 05:52:06;;;;;;;15.18;5.20;;;;;;;;;;4892788;29;20152;-70
2023/07/29 05:55:46;;;;;;;11.32;4.45;;;;;;;;;;4893222;29;20045;-69
2023/07/29 05:59:29;;;;;;;11.57;4.28;;;;;;;;;;4893066;29;20044;-70
2023/07/29 06:03:07;;;;;;;18.67;5.07;;;;;;;;;;4896464;29;20135;-69
2023/07/29 06:06:47;;;;;;;12.73;4.28;;;;;;;;;;4897675;29;20740;-70
2023/07/29 06:10:28;;;;;;;15.93;5.10;;;;;;;;;;4896556;29;20128;-71
2023/07/29 06:14:08;;;;;;;16.10;5.38;;;;;;;;;;4893961;29;20408;-71
2023/07/29 06:17:49;;;;;;;14.05;4.70;;;;;;;;;;4889877;29;20103;-72
2023/07/29 06:21:29;;;;;;;19.60;4.78;;;;;;;;;;4893736;29;20052;-73
2023/07/29 06:25:11;;;;;;;11.50;3.83;;;;;;;;;;4893911;29;20100;-70
2023/07/29 06:28:52;;;;;;;15.27;5.07;;;;;;;;;;4890833;29;20412;-72
2023/07/29 06:32:32;;;;;;;11.75;4.35;;;;;;;;;;4888427;29;20067;-70
2023/07/29 06:36:13;;;;;;;10.98;3.78;;;;;;;;;;4894475;29;20048;-73
2023/07/29 06:39:54;;;;;;;12.82;3.90;;;;;;;;;;4891081;29;20104;-73
2023/07/29 06:43:36;;;;;;;12.90;3.83;;;;;;;;;;4887890;29;20440;-74
2023/07/29 06:47:16;;;;;;;13.98;3.90;;;;;;;;;;4886608;29;20064;-72
2023/07/29 06:51:00;;;;;;;15.15;4.53;;;;;;;;;;4890686;29;20068;-72
2023/07/29 06:54:37;;;;;;;13.60;4.22;;;;;;;;;;4891137;29;20055;-72
2023/07/29 06:58:19;;;;;;;10.40;4.13;;;;;;;;;;4886804;29;20041;-74
2023/07/29 07:01:33;;;;;;;12.85;4.10;;;;;;;;;;4891854;29;20060;-73
2023/07/29 07:05:13;;;;;;;14.68;3.92;;;;;;;;;;4888772;29;20053;-74
2023/07/29 07:08:54;;;;;;;11.15;3.17;;;;;;;;;;4886308;29;20140;-72
2023/07/29 07:12:34;;;;;;;14.07;3.88;;;;;;;;;;4888950;29;20056;-73
2023/07/29 07:16:15;;;;;;;11.80;3.80;;;;;;;;;;4895609;29;20056;-74
2023/07/29 07:19:55;;;;;;;13.25;3.10;;;;;;;;;;4894268;29;20052;-73
2023/07/29 07:23:35;;;;;;;11.13;3.38;;;;;;;;;;4890875;29;20092;-71
2023/07/29 07:27:16;;;;;;;11.50;3.40;;;;;;;;;;4890278;29;20037;-73
2023/07/29 07:30:59;;;;;;;9.32;2.90;;;;;;;;;;4890876;29;20137;-69
2023/07/29 07:34:41;;;;;;;13.88;3.03;;;;;;;;;;4892229;29;20143;-69
2023/07/29 07:38:21;;;;;;;8.65;3.03;;;;;;;;;;4887784;29;20084;-70
2023/07/29 07:42:03;;;;;;;12.18;3.10;;;;;;;;;;4891910;29;20048;-72
2023/07/29 07:45:44;;;;;;;7.20;2.63;;;;;;;;;;4895485;29;20493;-75
2023/07/29 07:49:24;;;;;;;8.68;3.13;;;;;;;;;;4896634;29;20068;-78
2023/07/29 07:53:09;;;;;;;10.25;2.80;;;;;;;;;;4892936;29;20044;-79
2023/07/29 07:56:51;;;;;;;8.75;2.63;;;;;;;;;;4888226;29;20158;-73
2023/07/29 08:00:31;;;;;;;7.90;2.30;;;;;;;;;;4888369;29;20100;-73
2023/07/29 08:04:12;;;;;;;10.32;2.72;;;;;;;;;;4888066;29;20052;-73
2023/07/29 08:07:53;;;;;;;9.07;2.40;;;;;;;;;;4887722;29;20057;-72
2023/07/29 08:11:34;;;;;;;9.68;2.45;;;;;;;;;;4887842;29;20477;-76
2023/07/29 08:15:14;;;;;;;7.78;2.90;;;;;;;;;;4888300;29;20078;-78
2023/07/29 08:18:55;;;;;;;8.52;2.67;;;;;;;;;;4894140;29;20064;-69
2023/07/29 08:22:35;;;;;;;11.55;3.05;;;;;;;;;;4892087;29;20505;-74
2023/07/29 08:26:16;;;;;;;13.85;3.10;;;;;;;;;;4883961;29;20064;-73
2023/07/29 08:29:56;;;;;;;14.50;3.08;;;;;;;;;;4879227;29;20060;-72
2023/07/29 08:33:37;;;;;;;8.80;2.97;;;;;;;;;;4888452;29;20320;-73
2023/07/29 08:37:20;;;;;;;10.13;2.85;;;;;;;;;;4886728;29;20132;-79
2023/07/29 08:41:01;;;;;;;12.85;3.35;;;;;;;;;;4891568;29;20409;-72
2023/07/29 08:44:41;;;;;;;14.35;2.72;;;;;;;;;;4898579;29;20053;-76
2023/07/29 08:48:24;;;;;;;6.80;2.63;;;;;;;;;;4890398;29;20057;-74
2023/07/29 08:52:07;;;;;;;11.93;3.05;;;;;;;;;;4890332;29;20053;-74
2023/07/29 08:55:49;;;;;;;11.55;2.72;;;;;;;;;;4894595;29;20172;-74
2023/07/29 08:59:29;;;;;;;12.73;3.08;;;;;;;;;;4892763;29;20078;-74
2023/07/29 09:03:10;;;;;;;7.82;2.80;;;;;;;;;;4894423;29;20057;-76
2023/07/29 09:06:50;;;;;;;7.10;2.83;;;;;;;;;;4894158;29;20060;-75
2023/07/29 09:10:31;;;;;;;11.57;3.08;;;;;;;;;;4895199;29;20546;-74
2023/07/29 09:14:12;;;;;;;9.32;3.00;;;;;;;;;;4895701;29;20152;-73
2023/07/29 09:17:52;;;;;;;14.50;3.00;;;;;;;;;;4890297;29;20362;-75
2023/07/29 09:21:37;;;;;;;8.45;3.15;;;;;;;;;;4897006;29;20048;-75
2023/07/29 09:25:18;;;;;;;12.68;2.60;;;;;;;;;;4895452;29;20048;-77
2023/07/29 09:28:58;;;;;;;10.20;3.03;;;;;;;;;;4889167;29;20473;-71
2023/07/29 09:32:57;;;;;;;9.85;3.10;;;;;;;;;;4889392;29;20064;-71
2023/07/29 09:36:37;;;;;;;7.45;2.67;;;;;;;;;;4892939;29;20132;-70
2023/07/29 09:40:17;;;;;;;9.55;2.78;;;;;;;;;;4891660;29;20509;-70
2023/07/29 09:43:58;;;;;;;11.48;2.80;;;;;;;;;;4895681;29;20131;-72
2023/07/29 09:47:38;;;;;;;10.32;3.03;;;;;;;;;;4896133;29;20076;-71
2023/07/29 09:51:18;;;;;;;10.98;3.30;;;;;;;;;;4893071;29;20039;-71
2023/07/29 09:54:59;;;;;;;13.85;3.50;;;;;;;;;;4897172;29;20445;-70
2023/07/29 09:58:40;;;;;;;12.00;3.25;;;;;;;;;;4893568;29;20115;-68
2023/07/29 10:02:21;;;;;;;12.43;3.78;;;;;;;;;;4887848;29;20052;-70
2023/07/29 10:06:02;;;;;;;8.73;3.45;;;;;;;;;;4890937;29;20274;-73
2023/07/29 10:09:43;;;;;;;16.75;3.72;;;;;;;;;;4895976;29;20099;-66
2023/07/29 10:13:23;;;;;;;8.70;3.00;;;;;;;;;;4889973;29;20041;-72
2023/07/29 10:17:03;;;;;;;8.82;3.33;;;;;;;;;;4889594;29;20128;-74
2023/07/29 10:20:44;;;;;;;12.40;3.75;;;;;;;;;;4890259;29;20515;-75
2023/07/29 10:24:28;;;;;;;9.30;2.90;;;;;;;;;;4891371;29;20485;-71
2023/07/29 10:28:13;;;;;;;8.93;2.60;;;;;;;;;;4892028;29;20049;-73
2023/07/29 10:31:56;;;;;;;9.27;3.10;;;;;;;;;;4889249;29;20152;-73
2023/07/29 10:35:37;;;;;;;9.80;3.08;;;;;;;;;;4884590;29;20136;-73
2023/07/29 10:39:18;;;;;;;8.88;3.30;;;;;;;;;;4898641;29;20080;-71
2023/07/29 10:43:00;;;;;;;9.93;3.17;;;;;;;;;;4886602;29;20049;-75
2023/07/29 10:46:58;;;;;;;4.07;2.42;;;;;;;;;;4897435;29;20449;-75
2023/07/29 10:50:38;;;;;;;10.77;3.20;;;;;;;;;;4896775;29;20461;-71
2023/07/29 10:54:19;;;;;;;9.57;3.00;;;;;;;;;;4899221;29;20044;-76
2023/07/29 10:58:34;;;;;;;10.90;2.70;;;;;;;;;;4901500;29;20494;-80
2023/07/29 11:02:19;;;;;;;8.98;2.70;;;;;;;;;;4897152;29;20052;-78
2023/07/29 11:05:43;;;;;;;9.43;2.88;;;;;;;;;;4904436;29;20048;-80
2023/07/29 11:09:23;;;;;;;6.22;2.65;;;;;;;;;;4899814;29;20052;-73
2023/07/29 11:13:11;;;;;;;8.55;2.80;;;;;;;;;;4893222;29;20104;-75
2023/07/29 11:16:52;;;;;;;9.27;2.75;;;;;;;;;;4892322;29;20057;-72
2023/07/29 11:20:32;;;;;;;10.95;2.83;;;;;;;;;;4888484;29;20053;-69
2023/07/29 11:24:12;;;;;;;8.38;2.88;;;;;;;;;;4890777;29;20518;-68
2023/07/29 11:27:53;;;;;;;10.35;3.08;;;;;;;;;;4887732;29;20057;-71
2023/07/29 11:31:36;;;;;;;11.35;3.10;;;;;;;;;;4894121;29;20088;-71
2023/07/29 11:35:17;;;;;;;9.13;3.10;;;;;;;;;;4887987;29;20095;-70
2023/07/29 11:38:57;;;;;;;12.90;3.58;;;;;;;;;;4887808;29;20083;-71
2023/07/29 11:42:38;;;;;;;8.82;3.20;;;;;;;;;;4890954;29;20136;-70
2023/07/29 11:46:18;;;;;;;12.80;3.60;;;;;;;;;;4891988;29;20064;-68
2023/07/29 11:49:59;;;;;;;8.77;2.90;;;;;;;;;;4890326;29;20131;-68
2023/07/29 11:53:39;;;;;;;11.55;3.05;;;;;;;;;;4888899;29;20474;-67
2023/07/29 11:57:20;;;;;;;15.13;3.60;;;;;;;;;;4885876;29;20048;-66
2023/07/29 12:01:00;;;;;;;9.00;3.10;;;;;;;;;;4892732;29;20051;-69
2023/07/29 12:04:42;;;;;;;7.97;2.90;;;;;;;;;;4888783;29;20097;-67
2023/07/29 12:08:24;;;;;;;13.13;3.65;;;;;;;;;;4892917;29;20070;-72
2023/07/29 12:12:04;;;;;;;10.82;2.92;;;;;;;;;;4886571;29;20085;-70
2023/07/29 12:15:46;;;;;;;9.48;3.08;;;;;;;;;;4886302;29;20040;-70
2023/07/29 12:19:26;;;;;;;8.63;2.60;;;;;;;;;;4885486;29;20095;-70
2023/07/29 12:23:16;;;;;;;9.40;3.10;;;;;;;;;;4883209;29;20116;-70
2023/07/29 12:26:56;;;;;;;7.28;2.70;;;;;;;;;;4886891;29;20048;-73
2023/07/29 12:30:40;;;;;;;8.60;2.83;;;;;;;;;;4880311;29;20172;-72
2023/07/29 12:34:21;;;;;;;9.38;2.58;;;;;;;;;;4888316;29;20068;-71
2023/07/29 12:38:01;;;;;;;7.72;2.55;;;;;;;;;;4889343;29;20120;-74
2023/07/29 12:41:42;;;;;;;5.60;2.65;;;;;;;;;;4889778;29;20527;-71
2023/07/29 12:45:26;;;;;;;6.38;2.70;;;;;;;;;;4885716;29;20059;-74
2023/07/29 12:49:05;;;;;;;12.93;3.20;;;;;;;;;;4889101;29;20076;-73
2023/07/29 12:52:47;;;;;;;11.23;2.60;;;;;;;;;;4891809;29;20387;-71
2023/07/29 12:56:27;;;;;;;8.10;2.85;;;;;;;;;;4885953;29;20192;-72
2023/07/29 13:00:08;;;;;;;10.10;2.78;;;;;;;;;;4884582;29;20443;-74
2023/07/29 13:03:48;;;;;;;7.30;2.38;;;;;;;;;;4890770;29;20052;-76
2023/07/29 13:07:28;;;;;;;8.23;2.40;;;;;;;;;;4882440;29;20508;-73
2023/07/29 13:10:29;;;;;;;11.32;2.60;;;;;;;;;;4883668;29;20052;-71
2023/07/29 13:12:56;;;;;;;9.75;2.80;;;;;;;;;;4869302;29;20151;-75
2023/07/29 13:16:01;;;;;;;10.15;2.90;;;;;;;;;;4888638;29;20132;-73
2023/07/29 13:19:42;;;;;;;7.15;2.63;;;;;;;;;;4885570;29;20052;-77
2023/07/29 13:23:24;;;;;;;9.32;2.92;;;;;;;;;;4887122;29;20064;-70
2023/07/29 13:27:05;;;;;;;12.00;2.55;;;;;;;;;;4891218;29;20053;-79
2023/07/29 13:30:46;;;;;;;9.05;2.25;;;;;;;;;;4886208;29;20068;-77
2023/07/29 13:34:26;;;;;;;8.75;2.63;;;;;;;;;;4885439;29;20067;-75
2023/07/29 13:38:07;;;;;;;9.65;2.58;;;;;;;;;;4890936;29;20063;-74
2023/07/29 13:41:47;;;;;;;8.02;2.67;;;;;;;;;;4890334;29;20519;-71
2023/07/29 13:45:28;;;;;;;10.07;2.65;;;;;;;;;;4886205;29;20052;-72
2023/07/29 13:49:08;;;;;;;11.68;3.08;;;;;;;;;;4889625;29;20396;-77
2023/07/29 13:52:48;;;;;;;8.20;2.50;;;;;;;;;;4881287;29;20532;-72
2023/07/29 13:56:29;;;;;;;13.90;2.97;;;;;;;;;;4884202;29;20057;-73
2023/07/29 14:00:09;;;;;;;9.05;3.08;;;;;;;;;;4885921;29;20836;-73
2023/07/29 14:03:49;;;;;;;7.95;2.80;;;;;;;;;;4885276;29;20056;-76
2023/07/29 14:07:31;;;;;;;10.38;3.00;;;;;;;;;;4888847;29;20075;-72
2023/07/29 14:11:11;;;;;;;11.07;2.50;;;;;;;;;;4888169;29;20052;-70
2023/07/29 14:14:52;;;;;;;10.20;2.80;;;;;;;;;;4890097;29;20576;-75
2023/07/29 14:18:32;;;;;;;10.15;2.47;;;;;;;;;;4887629;29;20131;-72
2023/07/29 14:22:13;;;;;;;6.72;2.42;;;;;;;;;;4892322;29;20485;-78
2023/07/29 14:25:54;;;;;;;8.63;2.20;;;;;;;;;;4887853;29;20135;-76
2023/07/29 14:29:34;;;;;;;10.57;2.80;;;;;;;;;;4896044;29;20192;-75
2023/07/29 14:33:15;;;;;;;11.30;2.42;;;;;;;;;;4891634;29;20064;-77
2023/07/29 14:36:55;;;;;;;6.95;2.30;;;;;;;;;;4889028;29;20537;-75
2023/07/29 14:40:35;;;;;;;9.80;2.50;;;;;;;;;;4893603;29;20059;-70
2023/07/29 14:44:16;;;;;;;8.82;2.60;;;;;;;;;;4889139;29;20057;-75
2023/07/29 14:47:59;;;;;;;8.23;2.50;;;;;;;;;;4888480;29;20117;-74
2023/07/29 14:51:39;;;;;;;8.18;2.63;;;;;;;;;;4886733;29;20124;-77
2023/07/29 14:55:20;;;;;;;10.32;2.95;;;;;;;;;;4890696;29;20280;-74
2023/07/29 14:59:00;;;;;;;23.00;5.57;;;;;;;;;;4892331;29;20509;-77
2023/07/29 15:02:41;;;;;;;27.48;6.25;;;;;;;;;;4878751;29;20053;-71
2023/07/29 15:06:23;;;;;;;14.00;3.28;;;;;;;;;;4890411;29;20078;-72
2023/07/29 15:10:03;;;;;;;11.80;3.22;;;;;;;;;;4891315;29;20111;-71
2023/07/29 15:13:43;;;;;;;12.60;2.58;;;;;;;;;;4884487;29;20056;-75
2023/07/29 15:17:24;;;;;;;8.63;2.78;;;;;;;;;;4884003;29;20452;-81
2023/07/29 15:21:04;;;;;;;13.15;3.28;;;;;;;;;;4893338;29;20060;-71
2023/07/29 15:24:46;;;;;;;10.98;2.83;;;;;;;;;;4889839;29;20045;-79
2023/07/29 15:28:25;;;;;;;11.45;2.95;;;;;;;;;;4886049;29;20718;-76
2023/07/29 15:32:05;;;;;;;13.02;3.25;;;;;;;;;;4886661;29;20402;-70
2023/07/29 15:35:46;;;;;;;9.15;2.95;;;;;;;;;;4881361;29;20056;-71
2023/07/29 15:39:26;;;;;;;12.35;2.90;;;;;;;;;;4892687;29;20063;-74
2023/07/29 15:43:06;;;;;;;8.38;2.67;;;;;;;;;;4887123;29;20576;-79
2023/07/29 15:46:47;;;;;;;10.15;3.30;;;;;;;;;;4886523;29;20052;-78
2023/07/29 15:50:27;;;;;;;11.63;3.40;;;;;;;;;;4885389;29;20044;-69
2023/07/29 15:54:07;;;;;;;10.23;2.83;;;;;;;;;;4890110;29;20582;-73
2023/07/29 15:57:49;;;;;;;8.23;3.00;;;;;;;;;;4877181;29;20045;-73
2023/07/29 16:01:30;;;;;;;9.93;2.70;;;;;;;;;;4884059;29;20140;-73
2023/07/29 16:05:10;;;;;;;11.05;2.70;;;;;;;;;;4877400;29;20127;-74
2023/07/29 16:08:51;;;;;;;10.27;2.70;;;;;;;;;;4875031;29;20528;-79
2023/07/29 16:12:47;;;;;;;10.98;2.50;;;;;;;;;;4883521;29;20504;-71
2023/07/29 16:16:28;;;;;;;11.98;2.90;;;;;;;;;;4885441;29;20088;-80
2023/07/29 16:20:11;;;;;;;9.05;2.97;;;;;;;;;;4880303;29;20060;-73
2023/07/29 16:23:52;;;;;;;15.48;3.35;;;;;;;;;;4884551;29;20052;-73
2023/07/29 16:27:32;;;;;;;15.07;2.78;;;;;;;;;;4884737;29;20463;-72
2023/07/29 16:31:12;;;;;;;10.45;2.42;;;;;;;;;;4878863;29;20060;-80
2023/07/29 16:34:52;;;;;;;11.13;2.63;;;;;;;;;;4888410;29;20112;-79
2023/07/29 16:38:33;;;;;;;11.73;3.05;;;;;;;;;;4891796;29;20474;-80
2023/07/29 16:42:13;;;;;;;8.98;3.05;;;;;;;;;;4887581;29;20052;-82
2023/07/29 16:45:53;;;;;;;13.50;3.15;;;;;;;;;;4897301;29;20045;-75
2023/07/29 16:49:34;;;;;;;10.95;3.47;;;;;;;;;;4889223;29;20045;-75
2023/07/29 16:53:14;;;;;;;9.38;2.60;;;;;;;;;;4892801;29;20056;-74
2023/07/29 16:56:57;;;;;;;11.25;2.80;;;;;;;;;;4889126;29;20048;-74
2023/07/29 17:00:37;;;;;;;10.98;2.72;;;;;;;;;;4891401;29;20049;-70
2023/07/29 17:04:18;;;;;;;9.00;2.70;;;;;;;;;;4890023;29;20048;-75
2023/07/29 17:07:58;;;;;;;11.32;2.80;;;;;;;;;;4887853;29;20111;-76
2023/07/29 17:11:40;;;;;;;12.50;2.65;;;;;;;;;;4891726;29;20052;-72
2023/07/29 17:15:21;;;;;;;14.50;2.72;;;;;;;;;;4885032;29;20402;-75
2023/07/29 17:19:03;;;;;;;11.40;3.08;;;;;;;;;;4883627;29;20505;-76
2023/07/29 17:22:44;;;;;;;11.13;2.78;;;;;;;;;;4892268;29;20671;-74
2023/07/29 17:26:25;;;;;;;11.50;3.38;;;;;;;;;;4883112;29;20055;-75
2023/07/29 17:30:05;;;;;;;9.00;2.70;;;;;;;;;;4879945;29;20454;-70
2023/07/29 17:33:46;;;;;;;13.70;3.15;;;;;;;;;;4890283;29;20398;-70
2023/07/29 17:37:27;;;;;;;12.85;3.10;;;;;;;;;;4890780;29;20056;-71
2023/07/29 17:41:09;;;;;;;12.07;2.80;;;;;;;;;;4881501;29;20541;-72
2023/07/29 17:44:50;;;;;;;9.77;2.85;;;;;;;;;;4882648;29;20231;-72
2023/07/29 17:48:30;;;;;;;12.35;2.60;;;;;;;;;;4882071;29;20049;-72
2023/07/29 17:52:11;;;;;;;8.18;2.42;;;;;;;;;;4891955;29;20135;-74
2023/07/29 17:55:55;;;;;;;13.50;3.22;;;;;;;;;;4891184;29;20111;-71
2023/07/29 17:59:36;;;;;;;9.30;3.10;;;;;;;;;;4890094;29;20605;-69
2023/07/29 18:03:17;;;;;;;8.75;2.67;;;;;;;;;;4889183;29;20052;-73
2023/07/29 18:06:56;;;;;;;7.85;2.42;;;;;;;;;;4890107;29;20055;-71
2023/07/29 18:10:38;;;;;;;13.38;2.97;;;;;;;;;;4896739;29;20041;-73
2023/07/29 18:14:19;;;;;;;12.68;3.08;;;;;;;;;;4886791;29;20409;-72
2023/07/29 18:18:01;;;;;;;12.63;3.25;;;;;;;;;;4896214;29;20139;-70
2023/07/29 18:21:41;;;;;;;8.18;2.80;;;;;;;;;;4895825;29;20063;-73
2023/07/29 18:25:23;;;;;;;10.73;2.85;;;;;;;;;;4888841;29;20045;-71
2023/07/29 18:29:05;;;;;;;15.13;2.75;;;;;;;;;;4887945;29;20079;-73
2023/07/29 18:32:45;;;;;;;14.77;3.10;;;;;;;;;;4887669;29;20036;-72
2023/07/29 18:36:27;;;;;;;10.57;2.67;;;;;;;;;;4892417;29;20421;-72
2023/07/29 18:40:06;;;;;;;12.77;2.50;;;;;;;;;;4888623;29;20462;-73
2023/07/29 18:43:47;;;;;;;14.10;2.70;;;;;;;;;;4890123;29;20048;-74
2023/07/29 18:47:27;;;;;;;13.70;2.80;;;;;;;;;;4895186;29;20571;-72
2023/07/29 18:51:07;;;;;;;11.65;2.80;;;;;;;;;;4889503;29;20135;-73
2023/07/29 18:54:48;;;;;;;10.00;2.72;;;;;;;;;;4890697;29;20489;-72
2023/07/29 18:58:28;;;;;;;14.90;2.90;;;;;;;;;;4887921;29;20045;-73
2023/07/29 19:02:08;;;;;;;13.63;3.03;;;;;;;;;;4892731;29;20416;-72
2023/07/29 19:05:49;;;;;;;11.15;2.55;;;;;;;;;;4888295;29;20060;-71
2023/07/29 19:09:29;;;;;;;15.57;3.13;;;;;;;;;;4891874;29;20056;-71
2023/07/29 19:13:10;;;;;;;15.95;2.97;;;;;;;;;;4892280;29;20104;-73
2023/07/29 19:16:51;;;;;;;10.70;3.25;;;;;;;;;;4886221;29;20053;-71
2023/07/29 19:20:32;;;;;;;11.82;2.65;;;;;;;;;;4882126;29;20053;-76
2023/07/29 19:24:11;;;;;;;11.52;2.92;;;;;;;;;;4892875;29;20059;-76
2023/07/29 19:27:54;;;;;;;12.45;2.83;;;;;;;;;;4886479;29;20063;-79
2023/07/29 19:31:35;;;;;;;10.60;2.47;;;;;;;;;;4896184;29;20408;-75
2023/07/29 19:35:15;;;;;;;9.23;2.50;;;;;;;;;;4888498;29;20072;-69
2023/07/29 19:38:56;;;;;;;15.43;3.15;;;;;;;;;;4894396;29;20056;-79
2023/07/29 19:42:36;;;;;;;16.75;3.38;;;;;;;;;;4887749;29;20394;-76
2023/07/29 19:46:16;;;;;;;11.52;2.75;;;;;;;;;;4888796;29;20120;-70
2023/07/29 19:49:57;;;;;;;10.85;2.55;;;;;;;;;;4883822;29;20043;-75
2023/07/29 19:53:37;;;;;;;12.50;2.67;;;;;;;;;;4895618;29;20126;-74
2023/07/29 19:57:17;;;;;;;11.35;2.50;;;;;;;;;;4890060;29;20059;-72
2023/07/29 20:00:58;;;;;;;12.35;3.05;;;;;;;;;;4891794;29;20060;-74
2023/07/29 20:04:38;;;;;;;15.00;2.88;;;;;;;;;;4886326;29;20127;-75
2023/07/29 20:08:18;;;;;;;15.32;2.72;;;;;;;;;;4890050;29;20454;-72
2023/07/29 20:11:59;;;;;;;9.95;2.55;;;;;;;;;;4885120;29;20131;-73
2023/07/29 20:15:39;;;;;;;12.98;2.97;;;;;;;;;;4888404;29;20067;-73
2023/07/29 20:19:19;;;;;;;13.82;3.10;;;;;;;;;;4886081;29;20141;-70
2023/07/29 20:23:01;;;;;;;8.02;2.38;;;;;;;;;;4889282;29;20107;-76
2023/07/29 20:26:43;;;;;;;14.63;2.88;;;;;;;;;;4890015;29;20138;-70
2023/07/29 20:30:23;;;;;;;6.95;2.45;;;;;;;;;;4893714;29;20099;-69
2023/07/29 20:34:03;;;;;;;11.57;2.65;;;;;;;;;;4882865;29;20070;-73
2023/07/29 20:37:44;;;;;;;16.45;2.75;;;;;;;;;;4892600;29;20056;-81
2023/07/29 20:41:27;;;;;;;10.43;2.95;;;;;;;;;;4891689;29;20052;-77
2023/07/29 20:45:08;;;;;;;9.45;2.38;;;;;;;;;;4878000;29;21143;-74
2023/07/29 20:48:48;;;;;;;12.48;2.58;;;;;;;;;;4881252;29;20113;-75
2023/07/29 20:52:28;;;;;;;13.85;2.88;;;;;;;;;;4887774;29;20056;-74
2023/07/29 20:56:09;;;;;;;12.38;2.60;;;;;;;;;;4883003;29;20052;-73
2023/07/29 20:59:49;;;;;;;10.43;3.05;;;;;;;;;;4880872;29;20048;-76
2023/07/29 21:03:32;;;;;;;14.45;2.75;;;;;;;;;;4884291;29;20052;-74
2023/07/29 21:07:12;;;;;;;8.40;2.47;;;;;;;;;;4895093;29;20084;-74
2023/07/29 21:10:53;;;;;;;13.60;2.88;;;;;;;;;;4893008;29;20049;-78
2023/07/29 21:14:33;;;;;;;11.73;2.60;;;;;;;;;;4897077;29;20049;-77
2023/07/29 21:18:13;;;;;;;11.88;2.85;;;;;;;;;;4898650;29;20048;-71
2023/07/29 21:21:54;;;;;;;9.45;2.80;;;;;;;;;;4899074;29;20049;-70